Time;durP1;ratioP1;P1;durP2;ratioP2;P2;SDS_P1;SDS_P2;PMS_P1;PMS_P2;Temp;Humidity;BMP_temperature;BMP_pressure;BME280_temperature;BME280_humidity;BME280_pressure;Samples;Min_cycle;Max_cycle;Signal;HPM_P1;HPM_P2
2023/07/06 00:00:13;;;;;;;3.70;3.10;;;;;;;16.98;81.07;98271.59;4167327;28;20670;-83
2023/07/06 00:02:16;;;;;;;5.80;3.50;;;;;;;16.96;81.92;98271.72;4154189;28;20658;-83
2023/07/06 00:04:21;;;;;;;4.20;3.37;;;;;;;16.94;80.62;98275.44;4155705;28;20661;-84
2023/07/06 00:06:25;;;;;;;4.03;3.27;;;;;;;16.93;82.34;98272.00;4133155;28;20649;-83
2023/07/06 00:08:28;;;;;;;5.37;3.87;;;;;;;16.93;81.14;98277.28;4144769;28;21046;-84
2023/07/06 00:10:33;;;;;;;4.90;3.47;;;;;;;16.93;81.26;98276.41;4151294;28;20659;-84
2023/07/06 00:12:36;;;;;;;5.47;3.90;;;;;;;16.89;82.75;98275.03;4150275;28;20667;-83
2023/07/06 00:14:39;;;;;;;3.70;3.13;;;;;;;16.87;81.87;98272.56;4153146;28;20637;-83
2023/07/06 00:16:47;;;;;;;6.40;3.37;;;;;;;16.85;82.04;98274.47;4142577;28;20649;-83
2023/07/06 00:18:51;;;;;;;6.07;4.27;;;;;;;16.86;81.10;98284.06;4138265;28;20677;-84
2023/07/06 00:20:57;;;;;;;4.43;3.30;;;;;;;16.88;82.35;98281.28;4165490;28;21102;-84
2023/07/06 00:23:00;;;;;;;4.70;3.63;;;;;;;16.87;80.67;98280.47;4147516;28;20638;-84
2023/07/06 00:25:05;;;;;;;4.53;3.80;;;;;;;16.84;83.09;98278.09;4150092;28;21226;-84
2023/07/06 00:27:08;;;;;;;4.87;3.80;;;;;;;16.84;83.00;98287.78;4152400;28;20715;-83
2023/07/06 00:29:11;;;;;;;5.43;3.53;;;;;;;16.82;81.98;98277.38;4153167;28;20652;-84
2023/07/06 00:31:21;;;;;;;6.93;3.97;;;;;;;16.82;83.20;98282.66;4136789;28;20641;-83
2023/07/06 00:33:26;;;;;;;6.17;3.90;;;;;;;16.80;83.17;98275.88;4152666;28;20665;-83
2023/07/06 00:35:29;;;;;;;4.33;3.50;;;;;;;16.77;82.11;98278.78;4151873;28;20733;-84
2023/07/06 00:37:36;;;;;;;5.53;3.97;;;;;;;16.74;82.11;98274.63;4153035;28;20653;-84
2023/07/06 00:39:40;;;;;;;4.17;3.50;;;;;;;16.70;81.30;98277.66;4134731;28;20633;-83
2023/07/06 00:41:43;;;;;;;5.80;3.87;;;;;;;16.68;83.46;98272.53;4149503;28;20708;-83
2023/07/06 00:43:49;;;;;;;6.27;4.13;;;;;;;16.64;82.21;98273.78;4134810;28;20631;-83
2023/07/06 00:45:54;;;;;;;4.80;3.80;;;;;;;16.62;82.51;98280.16;4136440;28;20652;-84
2023/07/06 00:47:59;;;;;;;6.00;3.80;;;;;;;16.57;83.50;98272.66;4160409;28;20646;-84
2023/07/06 00:50:07;;;;;;;4.67;3.33;;;;;;;16.56;81.60;98273.63;4154303;28;20645;-84
2023/07/06 00:52:11;;;;;;;5.10;3.40;;;;;;;16.54;82.89;98272.94;4154321;28;20638;-84
2023/07/06 00:54:18;;;;;;;4.00;3.60;;;;;;;16.51;83.54;98273.22;4141783;28;20706;-84
2023/07/06 00:56:25;;;;;;;6.00;3.80;;;;;;;16.50;83.76;98280.44;4150730;28;20656;-83
2023/07/06 00:58:31;;;;;;;5.90;3.87;;;;;;;16.46;83.20;98277.22;4158373;28;20750;-83
2023/07/06 01:00:35;;;;;;;5.43;3.57;;;;;;;16.44;82.15;98278.34;4153279;28;20642;-84
2023/07/06 01:02:41;;;;;;;5.37;3.90;;;;;;;16.42;83.85;98282.88;4154208;28;20631;-83
2023/07/06 01:04:45;;;;;;;4.33;3.50;;;;;;;16.40;82.64;98269.03;4147488;28;20658;-84
2023/07/06 01:06:51;;;;;;;5.93;3.90;;;;;;;16.35;83.43;98273.88;4166789;28;20703;-83
2023/07/06 01:08:56;;;;;;;4.97;3.30;;;;;;;16.33;83.31;98279.28;4170083;28;20625;-84
2023/07/06 01:11:00;;;;;;;4.30;3.80;;;;;;;16.31;82.84;98275.09;4150614;28;20782;-84
2023/07/06 01:13:04;;;;;;;5.13;3.63;;;;;;;16.31;82.06;98286.50;4140482;28;20630;-84
2023/07/06 01:15:08;;;;;;;4.80;3.80;;;;;;;16.30;81.75;98276.91;4149967;28;20676;-83
2023/07/06 01:17:15;;;;;;;4.23;3.43;;;;;;;16.31;83.79;98278.59;4147887;28;20649;-83
2023/07/06 01:19:36;;;;;;;5.03;3.60;;;;;;;16.28;83.32;98270.13;4151255;28;20858;-84
2023/07/06 01:21:44;;;;;;;6.23;3.40;;;;;;;16.22;83.92;98271.50;4153038;28;20691;-84
2023/07/06 01:24:20;;;;;;;4.80;3.80;;;;;;;16.19;84.08;98276.16;4137893;28;20639;-83
2023/07/06 01:26:43;;;;;;;4.87;3.80;;;;;;;16.14;82.53;98273.09;4157286;28;21005;-84
2023/07/06 01:29:17;;;;;;;4.60;3.30;;;;;;;16.11;83.75;98273.38;4139505;28;21077;-84
2023/07/06 01:31:36;;;;;;;5.00;4.10;;;;;;;16.03;85.04;98265.31;4149471;28;20763;-84
2023/07/06 01:33:41;;;;;;;4.57;3.80;;;;;;;16.00;83.81;98276.09;4148209;28;21089;-83
2023/07/06 01:35:50;;;;;;;5.77;4.00;;;;;;;16.01;85.01;98274.31;4165248;28;20729;-83
2023/07/06 01:37:53;;;;;;;4.73;3.47;;;;;;;15.99;85.67;98277.06;4149327;28;20642;-84
2023/07/06 01:39:57;;;;;;;5.40;3.97;;;;;;;16.00;85.26;98265.59;4156983;28;20644;-83
2023/07/06 01:42:27;;;;;;;4.83;3.93;;;;;;;15.98;84.07;98264.88;4158473;28;21372;-83
2023/07/06 01:44:30;;;;;;;5.07;3.80;;;;;;;15.93;84.76;98256.53;4137763;28;20636;-84
2023/07/06 01:46:35;;;;;;;5.13;3.70;;;;;;;15.92;84.45;98256.69;4134595;28;21076;-83
2023/07/06 01:48:38;;;;;;;5.93;3.63;;;;;;;15.87;85.02;98257.06;4152365;28;21183;-84
2023/07/06 01:50:44;;;;;;;4.13;3.50;;;;;;;15.84;84.73;98261.78;4140122;28;20665;-84
2023/07/06 01:52:55;;;;;;;5.00;3.70;;;;;;;15.81;85.52;98260.25;4166124;28;20680;-83
2023/07/06 01:55:09;;;;;;;4.23;3.43;;;;;;;15.80;84.93;98258.59;4153286;28;20647;-83
2023/07/06 01:57:17;;;;;;;5.90;4.03;;;;;;;15.82;86.32;98258.47;4146644;28;20998;-84
2023/07/06 01:59:21;;;;;;;4.93;3.47;;;;;;;15.82;85.77;98268.97;4151807;28;20649;-83
2023/07/06 02:01:27;;;;;;;5.37;3.83;;;;;;;15.84;86.09;98259.16;4131488;28;20763;-83
2023/07/06 02:03:32;;;;;;;5.40;4.00;;;;;;;15.81;85.15;98260.25;4149128;28;20657;-83
2023/07/06 02:05:37;;;;;;;5.07;4.10;;;;;;;15.83;85.84;98265.38;4155015;28;20650;-84
2023/07/06 02:07:41;;;;;;;4.10;3.40;;;;;;;15.83;85.70;98262.72;4170103;28;20640;-83
2023/07/06 02:09:45;;;;;;;5.30;3.73;;;;;;;15.82;86.18;98269.81;4154235;28;20648;-83
2023/07/06 02:11:51;;;;;;;4.80;3.77;;;;;;;15.81;84.95;98264.69;4129837;28;20698;-83
2023/07/06 02:13:55;;;;;;;5.70;3.90;;;;;;;15.78;84.76;98260.50;4156000;28;20726;-83
2023/07/06 02:15:58;;;;;;;6.27;3.73;;;;;;;15.76;86.72;98267.69;4147523;28;20659;-83
2023/07/06 02:18:02;;;;;;;4.77;3.70;;;;;;;15.74;86.48;98267.00;4154100;28;20629;-83
2023/07/06 02:20:09;;;;;;;5.27;3.90;;;;;;;15.72;86.51;98266.28;4152409;28;20633;-83
2023/07/06 02:22:12;;;;;;;6.10;4.30;;;;;;;15.67;85.93;98265.84;4171262;28;21058;-84
2023/07/06 02:24:15;;;;;;;5.20;3.40;;;;;;;15.60;85.55;98263.88;4167854;28;20666;-83
2023/07/06 02:26:18;;;;;;;4.83;3.70;;;;;;;15.55;86.87;98260.81;4139177;28;22161;-84
2023/07/06 02:28:22;;;;;;;5.30;3.90;;;;;;;15.55;87.29;98266.09;4148926;28;20969;-83
2023/07/06 02:30:25;;;;;;;6.20;3.90;;;;;;;15.53;85.34;98270.66;4155941;28;20651;-83
2023/07/06 02:32:28;;;;;;;6.80;4.10;;;;;;;15.51;86.35;98267.28;4139643;28;20741;-84
2023/07/06 02:34:31;;;;;;;7.93;4.17;;;;;;;15.48;85.73;98270.19;4137913;28;20692;-83
2023/07/06 02:36:37;;;;;;;5.30;4.03;;;;;;;15.44;86.50;98257.44;4135007;28;20716;-83
2023/07/06 02:38:42;;;;;;;8.37;4.10;;;;;;;15.44;85.36;98266.19;4148713;28;20622;-84
2023/07/06 02:40:46;;;;;;;4.37;3.90;;;;;;;15.41;86.73;98261.19;4151074;28;20633;-83
2023/07/06 02:42:49;;;;;;;6.23;3.90;;;;;;;15.39;87.19;98267.50;4152979;28;20629;-83
2023/07/06 02:44:52;;;;;;;5.80;3.90;;;;;;;15.37;87.13;98269.44;4138985;28;20684;-83
2023/07/06 02:46:55;;;;;;;7.50;4.00;;;;;;;15.35;86.57;98271.34;4147185;28;20728;-84
2023/07/06 02:48:59;;;;;;;5.07;4.03;;;;;;;15.30;85.87;98261.22;4157952;28;21348;-84
2023/07/06 02:51:02;;;;;;;6.23;4.40;;;;;;;15.27;87.12;98269.38;4151895;28;21239;-83
2023/07/06 02:53:06;;;;;;;7.50;3.80;;;;;;;15.24;87.34;98269.63;4151257;28;20633;-83
2023/07/06 02:55:10;;;;;;;4.93;3.80;;;;;;;15.21;87.72;98264.63;4138159;28;20732;-83
2023/07/06 02:57:13;;;;;;;6.00;4.17;;;;;;;15.23;86.86;98267.13;4140724;28;20737;-83
2023/07/06 02:59:16;;;;;;;3.70;3.30;;;;;;;15.23;86.46;98269.75;4153546;28;20644;-83
2023/07/06 03:01:20;;;;;;;6.07;3.53;;;;;;;15.21;87.14;98274.31;4150218;28;20685;-83
2023/07/06 03:03:23;;;;;;;5.60;4.10;;;;;;;15.19;86.78;98265.75;4155366;28;20656;-83
2023/07/06 03:05:26;;;;;;;5.47;4.30;;;;;;;15.17;86.59;98268.50;4154084;28;20719;-83
2023/07/06 03:07:29;;;;;;;4.63;3.70;;;;;;;15.15;87.15;98267.75;4148358;28;20665;-83
2023/07/06 03:09:35;;;;;;;6.17;3.90;;;;;;;15.11;86.38;98273.41;4163388;28;20847;-83
2023/07/06 03:11:44;;;;;;;5.30;4.03;;;;;;;15.03;86.02;98270.56;4134069;28;20653;-83
2023/07/06 03:13:47;;;;;;;6.20;3.97;;;;;;;14.97;86.90;98260.56;4130545;28;20626;-83
2023/07/06 03:15:51;;;;;;;5.27;4.27;;;;;;;14.92;87.05;98262.75;4138382;28;20630;-83
2023/07/06 03:17:54;;;;;;;5.23;3.77;;;;;;;14.89;87.42;98268.25;4142511;28;20688;-83
2023/07/06 03:19:58;;;;;;;5.20;4.00;;;;;;;14.88;87.54;98263.94;4140786;28;20642;-83
2023/07/06 03:22:01;;;;;;;4.90;4.13;;;;;;;14.88;87.42;98265.75;4139744;28;20635;-85
2023/07/06 03:24:06;;;;;;;4.77;3.67;;;;;;;14.88;87.29;98271.81;4170894;28;20667;-86
2023/07/06 03:26:11;;;;;;;7.03;4.17;;;;;;;14.89;86.71;98273.50;4154177;28;20635;-86
2023/07/06 03:28:15;;;;;;;4.60;3.73;;;;;;;14.90;86.59;98275.19;4139902;28;20695;-86
2023/07/06 03:30:21;;;;;;;5.33;4.00;;;;;;;14.88;87.06;98271.00;4166997;28;20668;-86
2023/07/06 03:32:25;;;;;;;4.97;3.20;;;;;;;14.83;86.84;98268.75;4143205;28;20745;-86
2023/07/06 03:34:28;;;;;;;5.47;3.70;;;;;;;14.79;87.60;98271.75;4155250;28;20685;-86
2023/07/06 03:36:33;;;;;;;7.53;3.70;;;;;;;14.77;87.07;98269.25;4136338;28;20721;-86
2023/07/06 03:38:36;;;;;;;5.33;4.23;;;;;;;14.77;86.92;98265.81;4152646;28;20628;-86
2023/07/06 03:40:39;;;;;;;5.03;3.80;;;;;;;14.76;87.32;98262.34;4150484;28;20644;-86
2023/07/06 03:42:45;;;;;;;5.37;3.83;;;;;;;14.74;87.79;98273.94;4155232;28;20640;-86
2023/07/06 03:44:48;;;;;;;4.47;3.47;;;;;;;14.71;87.78;98264.50;4153816;28;20644;-85
2023/07/06 03:46:51;;;;;;;3.97;3.13;;;;;;;14.70;88.07;98264.63;4151206;28;21023;-86
2023/07/06 03:48:55;;;;;;;5.17;3.83;;;;;;;14.67;87.70;98260.47;4153251;28;21246;-85
2023/07/06 03:51:03;;;;;;;5.87;3.97;;;;;;;14.65;88.57;98269.44;4137429;28;20717;-86
2023/07/06 03:53:07;;;;;;;5.47;3.63;;;;;;;14.63;88.23;98266.94;4147016;28;20644;-86
2023/07/06 03:55:14;;;;;;;5.47;3.80;;;;;;;14.63;88.48;98266.94;4135821;28;20642;-86
2023/07/06 03:57:18;;;;;;;5.13;4.07;;;;;;;14.64;88.02;98273.88;4150177;28;20659;-86
2023/07/06 03:59:23;;;;;;;5.07;4.00;;;;;;;14.64;88.72;98273.00;4136451;28;20649;-86
2023/07/06 04:01:27;;;;;;;5.13;3.80;;;;;;;14.65;88.70;98278.13;4153716;28;21073;-86
2023/07/06 04:03:32;;;;;;;6.40;4.60;;;;;;;14.70;88.04;98273.38;4153019;28;21213;-86
2023/07/06 04:05:38;;;;;;;5.47;4.47;;;;;;;14.74;88.16;98274.75;4153516;28;20643;-86
2023/07/06 04:07:42;;;;;;;4.43;3.90;;;;;;;14.78;88.28;98281.44;4154203;28;20641;-86
2023/07/06 04:09:45;;;;;;;6.63;4.80;;;;;;;14.81;88.33;98283.00;4151870;28;20645;-86
2023/07/06 04:11:48;;;;;;;4.73;3.67;;;;;;;14.84;88.67;98280.94;4148919;28;20696;-86
2023/07/06 04:13:57;;;;;;;5.10;4.20;;;;;;;14.85;89.03;98279.13;4140608;28;20664;-86
2023/07/06 04:16:02;;;;;;;7.00;4.43;;;;;;;14.85;88.89;98282.59;4151128;28;21487;-86
2023/07/06 04:18:05;;;;;;;6.27;4.07;;;;;;;14.86;88.46;98286.88;4151845;28;20753;-86
2023/07/06 04:20:18;;;;;;;6.23;3.90;;;;;;;14.87;88.12;98280.69;4153228;28;20638;-86
2023/07/06 04:22:22;;;;;;;5.57;4.27;;;;;;;14.89;88.55;98284.00;4153185;28;21182;-86
2023/07/06 04:24:31;;;;;;;6.27;4.43;;;;;;;14.90;88.44;98284.81;4136773;28;20636;-86
2023/07/06 04:26:35;;;;;;;6.90;4.50;;;;;;;14.91;88.49;98281.25;4157425;28;21156;-86
2023/07/06 04:28:40;;;;;;;6.00;4.60;;;;;;;14.94;88.54;98284.44;4156020;28;20647;-86
2023/07/06 04:30:49;;;;;;;6.70;4.00;;;;;;;15.00;88.64;98280.50;4157741;28;20690;-86
2023/07/06 04:32:54;;;;;;;6.50;4.57;;;;;;;15.06;87.94;98291.31;4145046;28;20660;-85
2023/07/06 04:34:58;;;;;;;6.17;4.40;;;;;;;15.09;87.74;98285.81;4150998;28;20711;-86
2023/07/06 04:37:02;;;;;;;6.30;4.57;;;;;;;15.13;87.56;98293.31;4165904;28;20719;-86
2023/07/06 04:39:08;;;;;;;7.73;4.37;;;;;;;15.17;87.47;98288.69;4144979;28;21206;-86
2023/07/06 04:41:12;;;;;;;5.73;4.40;;;;;;;15.24;87.58;98295.09;4154647;28;21222;-84
2023/07/06 04:43:15;;;;;;;7.50;4.80;;;;;;;15.28;88.01;98301.75;4135614;28;20704;-86
2023/07/06 04:45:21;;;;;;;6.20;4.70;;;;;;;15.33;87.59;98294.31;4116480;28;21904;-87
2023/07/06 04:47:25;;;;;;;6.17;4.57;;;;;;;15.39;86.36;98304.31;4153813;28;20755;-86
2023/07/06 04:49:30;;;;;;;7.90;4.70;;;;;;;15.44;86.63;98307.38;4156835;28;20636;-87
2023/07/06 04:51:35;;;;;;;5.63;4.27;;;;;;;15.50;86.45;98304.22;4138412;28;20692;-86
2023/07/06 04:53:38;;;;;;;6.60;4.63;;;;;;;15.54;86.79;98308.28;4152178;28;20630;-87
2023/07/06 04:55:42;;;;;;;5.37;4.10;;;;;;;15.60;85.44;98308.59;4151444;28;20637;-87
2023/07/06 04:57:46;;;;;;;5.80;3.90;;;;;;;15.63;85.37;98314.41;4151400;28;20753;-86
2023/07/06 04:59:49;;;;;;;6.50;4.70;;;;;;;15.67;84.42;98315.81;4143103;28;21277;-87
2023/07/06 05:01:53;;;;;;;5.90;3.77;;;;;;;15.73;85.41;98317.94;4157163;28;20714;-87
2023/07/06 05:03:57;;;;;;;6.00;4.20;;;;;;;15.77;85.17;98321.97;4141117;28;20655;-86
2023/07/06 05:06:05;;;;;;;6.67;3.97;;;;;;;15.82;83.64;98321.59;4150301;28;20998;-86
2023/07/06 05:08:09;;;;;;;5.43;4.60;;;;;;;15.86;85.61;98318.56;4134573;28;20641;-86
2023/07/06 05:10:11;;;;;;;8.90;3.93;;;;;;;15.92;85.58;98323.31;4135546;28;20626;-86
2023/07/06 05:12:14;;;;;;;5.60;3.70;;;;;;;15.98;83.02;98328.00;4148038;28;20684;-86
2023/07/06 05:14:17;;;;;;;6.73;4.13;;;;;;;16.00;82.91;98327.88;4154438;28;20759;-85
2023/07/06 05:16:20;;;;;;;5.43;4.37;;;;;;;15.99;82.38;98324.44;4153570;28;20665;-84
2023/07/06 05:18:24;;;;;;;4.50;3.80;;;;;;;16.01;84.38;98333.00;4154894;28;21230;-84
2023/07/06 05:20:28;;;;;;;4.87;3.50;;;;;;;16.08;83.26;98334.97;4158208;28;20703;-84
2023/07/06 05:22:38;;;;;;;6.30;4.70;;;;;;;16.12;84.67;98327.69;4155045;28;20635;-83
2023/07/06 05:24:41;;;;;;;4.43;3.70;;;;;;;16.18;82.22;98327.97;4149427;28;20660;-85
2023/07/06 05:26:44;;;;;;;5.60;4.50;;;;;;;16.24;83.22;98330.09;4156851;28;20706;-85
2023/07/06 05:28:50;;;;;;;4.23;3.47;;;;;;;16.30;83.95;98332.19;4136048;28;20993;-85
2023/07/06 05:30:53;;;;;;;5.17;4.00;;;;;;;16.42;82.04;98330.28;4149704;28;20746;-87
2023/07/06 05:32:56;;;;;;;6.07;3.73;;;;;;;16.55;84.26;98334.34;4150786;28;20684;-87
2023/07/06 05:34:59;;;;;;;5.60;3.67;;;;;;;16.67;81.62;98335.88;4151090;28;20694;-87
2023/07/06 05:37:03;;;;;;;4.83;3.83;;;;;;;16.79;83.21;98332.97;4161690;28;21088;-87
2023/07/06 05:39:08;;;;;;;5.00;4.03;;;;;;;16.91;82.06;98338.97;4169934;28;20631;-86
2023/07/06 05:41:11;;;;;;;4.43;3.60;;;;;;;17.07;82.52;98338.28;4150512;28;20645;-86
2023/07/06 05:43:16;;;;;;;5.07;3.60;;;;;;;17.29;81.49;98353.88;4156262;28;20630;-86
2023/07/06 05:45:19;;;;;;;4.53;3.33;;;;;;;17.50;79.33;98354.56;4150235;28;20634;-83
2023/07/06 05:47:22;;;;;;;4.67;3.20;;;;;;;17.78;79.14;98358.94;4152941;28;20652;-83
2023/07/06 05:49:26;;;;;;;4.30;2.77;;;;;;;18.12;77.80;98351.19;4138577;28;20642;-83
2023/07/06 05:51:29;;;;;;;3.90;3.00;;;;;;;18.53;76.46;98362.13;4142240;28;20662;-83
2023/07/06 05:53:32;;;;;;;4.53;3.10;;;;;;;18.96;75.04;98359.69;4144733;28;20664;-83
2023/07/06 05:55:36;;;;;;;4.60;2.90;;;;;;;19.35;74.52;98374.28;4153429;28;20719;-82
2023/07/06 05:57:40;;;;;;;4.20;2.70;;;;;;;19.69;73.25;98373.44;4159226;28;21249;-82
2023/07/06 05:59:43;;;;;;;5.07;2.97;;;;;;;19.99;72.52;98382.59;4152640;28;20643;-83
2023/07/06 06:01:46;;;;;;;5.00;2.90;;;;;;;20.26;71.59;98386.94;4143432;28;20679;-82
2023/07/06 06:03:49;;;;;;;5.20;2.80;;;;;;;20.55;71.72;98381.13;4152868;28;20663;-86
2023/07/06 06:05:53;;;;;;;4.10;2.90;;;;;;;20.80;68.49;98390.84;4148789;28;20669;-87
2023/07/06 06:07:58;;;;;;;4.23;3.20;;;;;;;21.02;68.28;98391.09;4151452;28;20645;-86
2023/07/06 06:10:03;;;;;;;4.67;3.03;;;;;;;21.30;67.90;98387.16;4151788;28;21080;-87
2023/07/06 06:12:11;;;;;;;3.60;2.77;;;;;;;21.54;67.64;98393.34;4150555;28;21309;-87
2023/07/06 06:14:14;;;;;;;3.33;2.43;;;;;;;21.75;67.11;98388.38;4158542;28;21212;-87
2023/07/06 06:16:17;;;;;;;4.60;2.80;;;;;;;21.89;67.15;98398.34;4154875;28;20635;-87
2023/07/06 06:18:20;;;;;;;3.80;2.60;;;;;;;22.16;66.31;98392.66;4155079;28;20725;-87
2023/07/06 06:20:24;;;;;;;3.60;2.63;;;;;;;22.38;65.11;98401.63;4157000;28;20694;-87
2023/07/06 06:22:27;;;;;;;3.50;2.60;;;;;;;22.57;67.06;98389.78;4155809;28;20627;-87
2023/07/06 06:24:30;;;;;;;4.13;2.60;;;;;;;22.81;65.28;98393.19;4152586;28;20648;-87
2023/07/06 06:26:33;;;;;;;5.27;2.77;;;;;;;23.00;64.44;98398.91;4156446;28;20650;-88
2023/07/06 06:28:38;;;;;;;3.60;2.70;;;;;;;23.22;63.79;98395.47;4154135;28;20687;-87
2023/07/06 06:30:41;;;;;;;3.57;2.50;;;;;;;23.40;63.54;98396.84;4157150;28;20740;-87
2023/07/06 06:32:48;;;;;;;4.83;2.80;;;;;;;23.59;63.21;98398.22;4154596;28;20625;-87
2023/07/06 06:34:52;;;;;;;3.90;2.70;;;;;;;23.75;63.40;98406.94;4149678;28;20635;-87
2023/07/06 06:36:55;;;;;;;3.90;2.60;;;;;;;23.83;62.02;98396.22;4154182;28;20621;-87
2023/07/06 06:38:59;;;;;;;3.63;2.47;;;;;;;23.95;61.08;98397.44;4155311;28;20723;-87
2023/07/06 06:41:03;;;;;;;4.33;2.73;;;;;;;24.06;61.88;98403.19;4150495;28;20641;-87
2023/07/06 06:43:06;;;;;;;4.17;2.50;;;;;;;24.19;59.63;98404.22;4156805;28;21154;-87
2023/07/06 06:45:11;;;;;;;3.67;2.87;;;;;;;24.31;60.83;98400.09;4161521;28;20630;-87
2023/07/06 06:47:14;;;;;;;2.77;2.00;;;;;;;24.54;60.23;98400.88;4151321;28;20680;-83
2023/07/06 06:49:17;;;;;;;3.43;2.50;;;;;;;24.72;57.44;98393.34;4156146;28;20628;-82
2023/07/06 06:51:20;;;;;;;6.07;2.87;;;;;;;24.94;58.53;98393.22;4153939;28;20647;-82
2023/07/06 06:53:23;;;;;;;4.30;2.90;;;;;;;25.22;58.07;98405.72;4156265;28;20660;-82
2023/07/06 06:55:27;;;;;;;3.60;2.30;;;;;;;25.39;58.41;98388.44;4144016;28;20637;-82
2023/07/06 06:57:30;;;;;;;4.97;2.40;;;;;;;25.59;56.50;98395.66;4157369;28;20635;-79
2023/07/06 06:59:35;;;;;;;2.93;2.33;;;;;;;25.72;56.01;98394.97;4149702;28;20641;-79
2023/07/06 07:01:40;;;;;;;4.87;4.43;;;;;;;25.86;56.65;98394.91;4160210;28;20628;-79
2023/07/06 07:03:45;;;;;;;2.93;2.20;;;;;;;25.95;56.49;98400.94;4156654;28;20641;-79
2023/07/06 07:05:48;;;;;;;3.20;2.37;;;;;;;26.12;55.93;98392.47;4148400;28;20648;-78
2023/07/06 07:07:51;;;;;;;2.63;2.10;;;;;;;26.32;55.08;98390.78;4154604;28;20628;-77
2023/07/06 07:09:59;;;;;;;2.97;2.13;;;;;;;26.41;54.92;98390.44;4135946;28;20756;-77
2023/07/06 07:12:02;;;;;;;2.80;1.90;;;;;;;26.50;55.39;98388.44;4147983;28;20676;-78
2023/07/06 07:14:09;;;;;;;2.10;1.83;;;;;;;26.48;53.48;98383.28;4136811;28;20666;-77
2023/07/06 07:16:14;;;;;;;2.83;1.90;;;;;;;26.55;54.15;98386.81;4147129;28;20617;-77
2023/07/06 07:18:20;;;;;;;3.63;2.10;;;;;;;26.62;52.78;98393.03;4133239;28;20676;-77
2023/07/06 07:20:26;;;;;;;4.80;2.53;;;;;;;26.63;53.57;98378.63;4119183;28;20673;-78
2023/07/06 07:22:30;;;;;;;3.67;2.27;;;;;;;26.70;53.31;98376.81;4119930;28;20636;-77
2023/07/06 07:24:33;;;;;;;2.90;2.03;;;;;;;26.82;54.54;98377.91;4148013;28;20634;-77
2023/07/06 07:26:37;;;;;;;2.50;2.20;;;;;;;26.89;53.65;98376.13;4137882;28;20680;-77
2023/07/06 07:28:41;;;;;;;2.83;2.00;;;;;;;27.03;54.75;98380.50;4147466;28;20696;-77
2023/07/06 07:30:46;;;;;;;2.60;1.90;;;;;;;27.18;54.97;98371.28;4141468;28;20778;-78
2023/07/06 07:32:49;;;;;;;3.73;1.97;;;;;;;27.21;53.72;98374.41;4146179;28;20640;-77
2023/07/06 07:34:53;;;;;;;3.17;2.23;;;;;;;27.32;55.01;98372.97;4144652;28;20657;-77
2023/07/06 07:36:58;;;;;;;2.73;1.80;;;;;;;27.39;52.76;98371.94;4139229;28;20644;-78
2023/07/06 07:39:01;;;;;;;3.20;1.90;;;;;;;27.46;52.92;98375.50;4142017;28;20649;-77
2023/07/06 07:41:07;;;;;;;2.80;1.87;;;;;;;27.47;52.81;98377.16;4147803;28;20652;-77
2023/07/06 07:43:10;;;;;;;3.63;2.07;;;;;;;27.42;51.83;98368.88;4137024;28;20637;-77
2023/07/06 07:45:14;;;;;;;2.90;1.90;;;;;;;27.41;51.68;98369.91;4124882;28;20688;-78
2023/07/06 07:47:18;;;;;;;3.43;2.20;;;;;;;27.48;52.05;98370.75;4148488;28;20631;-77
2023/07/06 07:49:22;;;;;;;2.87;2.27;;;;;;;27.60;52.25;98372.69;4145323;28;20627;-77
2023/07/06 07:51:27;;;;;;;2.43;1.80;;;;;;;27.64;51.31;98375.75;4140720;28;20629;-77
2023/07/06 07:53:32;;;;;;;2.53;1.97;;;;;;;27.73;52.13;98370.00;4140838;28;20632;-77
2023/07/06 07:55:36;;;;;;;3.23;1.70;;;;;;;27.83;51.64;98373.09;4150391;28;20658;-77
2023/07/06 07:57:39;;;;;;;3.80;2.07;;;;;;;27.92;51.48;98362.97;4137824;28;20640;-78
2023/07/06 07:59:43;;;;;;;2.87;1.70;;;;;;;28.00;51.18;98369.78;4153164;28;20658;-77
2023/07/06 08:01:47;;;;;;;2.80;2.00;;;;;;;27.99;50.13;98367.31;4148214;28;20646;-77
2023/07/06 08:03:51;;;;;;;4.93;2.90;;;;;;;28.11;52.51;98369.19;4149248;28;20625;-78
2023/07/06 08:05:55;;;;;;;3.20;2.70;;;;;;;28.16;50.70;98363.22;4145396;28;20650;-77
2023/07/06 08:08:00;;;;;;;3.53;2.20;;;;;;;28.11;50.02;98360.34;4133572;28;20626;-78
2023/07/06 08:10:03;;;;;;;3.10;1.97;;;;;;;28.03;48.99;98357.84;4137307;28;20641;-77
2023/07/06 08:12:07;;;;;;;2.23;1.67;;;;;;;27.92;49.20;98365.66;4121355;28;20696;-77
2023/07/06 08:14:10;;;;;;;3.83;1.80;;;;;;;27.92;49.56;98361.16;4149320;28;20639;-77
2023/07/06 08:16:14;;;;;;;3.80;1.80;;;;;;;28.09;52.12;98363.22;4152651;28;20689;-78
2023/07/06 08:18:17;;;;;;;2.30;1.80;;;;;;;28.29;51.87;98360.53;4151388;28;20681;-77
2023/07/06 08:20:21;;;;;;;3.00;2.00;;;;;;;28.32;49.51;98358.25;4139847;28;21020;-77
2023/07/06 08:22:45;;;;;;;2.53;1.70;;;;;;;28.30;50.73;98351.44;4131246;28;21059;-78
2023/07/06 08:24:52;;;;;;;2.57;1.67;;;;;;;28.32;51.30;98365.47;4145949;28;21231;-78
2023/07/06 08:26:55;;;;;;;2.57;1.63;;;;;;;28.34;49.19;98363.41;4136666;28;21226;-77
2023/07/06 08:28:59;;;;;;;2.20;1.70;;;;;;;28.08;48.31;98352.66;4136179;28;20697;-78
2023/07/06 08:31:03;;;;;;;2.70;1.70;;;;;;;28.02;49.27;98358.84;4154964;28;20708;-77
2023/07/06 08:33:09;;;;;;;2.40;1.70;;;;;;;28.15;51.07;98356.22;4148281;28;20661;-77
2023/07/06 08:35:12;;;;;;;2.00;1.60;;;;;;;28.30;49.62;98360.31;4146424;28;20658;-78
2023/07/06 08:37:18;;;;;;;3.40;1.90;;;;;;;28.46;49.94;98373.28;4133144;28;20754;-78
2023/07/06 08:39:22;;;;;;;4.60;2.27;;;;;;;28.60;51.09;98358.81;4144877;28;21078;-78
2023/07/06 08:41:29;;;;;;;3.23;2.03;;;;;;;28.69;48.87;98358.41;4152391;28;20689;-78
2023/07/06 08:43:34;;;;;;;4.43;2.00;;;;;;;28.73;48.87;98367.69;4150945;28;20631;-78
2023/07/06 08:45:40;;;;;;;3.20;1.63;;;;;;;28.70;48.47;98360.06;4131789;28;21230;-78
2023/07/06 08:47:44;;;;;;;3.03;2.03;;;;;;;28.63;48.33;98359.22;4119886;28;20736;-78
2023/07/06 08:49:47;;;;;;;3.07;1.93;;;;;;;28.66;49.42;98355.28;4135618;28;20965;-78
2023/07/06 08:51:52;;;;;;;3.03;1.80;;;;;;;28.77;49.88;98358.16;4138627;28;20724;-78
2023/07/06 08:54:00;;;;;;;3.23;2.20;;;;;;;28.83;49.32;98351.13;4139142;28;20638;-78
2023/07/06 08:56:08;;;;;;;3.10;1.60;;;;;;;28.84;48.62;98347.41;4148687;28;20649;-78
2023/07/06 08:58:22;;;;;;;3.00;2.00;;;;;;;28.90;49.30;98349.22;4132152;28;20627;-77
2023/07/06 09:00:31;;;;;;;2.30;1.60;;;;;;;28.94;49.03;98343.22;4140941;28;20631;-78
2023/07/06 09:02:36;;;;;;;2.17;1.57;;;;;;;28.97;49.15;98347.34;4138162;28;20680;-78
2023/07/06 09:04:40;;;;;;;2.63;1.90;;;;;;;28.98;49.13;98345.25;4138204;28;21336;-78
2023/07/06 09:06:48;;;;;;;2.70;1.90;;;;;;;28.98;48.41;98345.25;4142973;28;20685;-78
2023/07/06 09:08:54;;;;;;;3.10;2.00;;;;;;;28.95;47.65;98344.06;4153647;28;20665;-78
2023/07/06 09:10:57;;;;;;;3.00;1.70;;;;;;;29.00;49.25;98336.97;4145503;28;20835;-78
2023/07/06 09:13:23;;;;;;;2.87;1.73;;;;;;;28.83;46.87;98340.38;4142112;28;20682;-78
2023/07/06 09:15:28;;;;;;;2.80;2.00;;;;;;;28.43;47.24;98327.25;4136924;28;21450;-82
2023/07/06 09:17:31;;;;;;;3.90;2.00;;;;;;;28.38;48.14;98329.75;4160243;28;20634;-78
2023/07/06 09:19:34;;;;;;;2.60;1.80;;;;;;;28.48;48.64;98328.28;4123987;28;20672;-78
2023/07/06 09:21:38;;;;;;;2.93;1.97;;;;;;;28.43;49.16;98336.16;4149385;28;20629;-78
2023/07/06 09:23:45;;;;;;;3.40;2.07;;;;;;;28.56;48.80;98323.47;4139730;28;21086;-78
2023/07/06 09:25:49;;;;;;;3.97;2.13;;;;;;;28.51;47.76;98333.22;4146078;28;20748;-78
2023/07/06 09:27:56;;;;;;;2.93;2.00;;;;;;;28.55;50.74;98329.06;4151092;28;20621;-78
2023/07/06 09:30:03;;;;;;;3.27;2.07;;;;;;;28.71;50.13;98337.50;4155641;28;20658;-77
2023/07/06 09:32:13;;;;;;;2.40;1.80;;;;;;;28.85;48.63;98327.53;4156449;28;20996;-77
2023/07/06 09:34:28;;;;;;;3.10;2.00;;;;;;;28.91;49.98;98332.88;4151438;28;20654;-78
2023/07/06 09:36:32;;;;;;;2.50;1.83;;;;;;;28.92;49.57;98321.09;4146836;28;20665;-78
2023/07/06 09:38:43;;;;;;;2.73;2.00;;;;;;;29.10;48.04;98332.81;4159262;28;20731;-79
2023/07/06 09:40:47;;;;;;;4.70;2.23;;;;;;;29.25;50.67;98332.56;4134832;28;21248;-80
2023/07/06 09:42:50;;;;;;;2.70;2.03;;;;;;;29.35;47.60;98333.75;4156907;28;21193;-79
2023/07/06 09:44:54;;;;;;;2.67;1.70;;;;;;;29.47;47.65;98343.59;4157332;28;20724;-79
2023/07/06 09:47:01;;;;;;;2.97;1.90;;;;;;;29.42;46.15;98342.56;4154906;28;20633;-78
2023/07/06 09:49:11;;;;;;;4.83;3.03;;;;;;;29.36;46.89;98331.88;4148497;28;20741;-78